Barona (240, 974, 635) Station Data

Red Flag Warning: No
Fire Weather Zone: 250
SDGE Region: Eastern
Lat/Lon: 32.935/-116.877

Observations

Time Wind Speed/Gust Temp(F) RH Fuel Moist Fuel Temp(F) Dewpt(F) Tmax(F) Tmin(F) Accum Precip 10-min Precip SL Press(mb)
5/24 8:20am 56 3 G 6 59° 89% - - 56° 62° 53° - - -
5/24 8:10am 34 5 G 7 58° 92% - - 56° 62° 53° - - -
5/24 8:00am 25 2 G 4 57° 92% - - 55° 62° 53° - - -
5/24 7:50am 3 5 G 6 57° 92% - - 55° 62° 53° - - -
5/24 7:40am 46 3 G 5 57° 92% - - 54° 62° 53° - - -
5/24 7:30am 33 2 G 4 56° 92% - - 54° 62° 53° - - -
5/24 7:20am 4 2 G 4 56° 92% - - 54° 62° 53° - - -
5/24 7:10am 326 1 G 3 56° 92% - - 54° 62° 53° - - -
5/24 7:00am 235 3 G 7 56° 92% - - 54° 62° 53° - - -
5/24 6:50am 240 8 G 14 56° 92% - - 54° 62° 53° - - -
5/24 6:40am 242 8 G 15 56° 92% - - 54° 62° 53° - - -
5/24 6:30am 231 5 G 10 56° 92% - - 54° 62° 53° - - -
5/24 6:20am 224 9 G 14 56° 92% - - 53° 62° 53° - - -
5/24 6:10am 209 3 G 10 54° 92% - - 51° 62° 53° - - -
5/24 6:00am 52 1 G 3 53° 92% - - 51° 62° 53° - - -
5/24 5:50am 95 3 G 4 53° 92% - - 51° 62° 53° - - -
5/24 5:40am 77 3 G 4 54° 92% - - 52° 62° 53.6° - - -
5/24 5:30am 22 1 G 2 54° 91% - - 52° 62° 54.2° - - -
5/24 5:20am 73 1 G 3 55° 91% - - 52° 62° 54.4° - - -
5/24 5:10am 40 3 G 4 55° 91% - - 53° 62° 54.5° - - -
5/24 5:00am 39 3 G 5 55° 91% - - 53° 62° 54.5° - - -
5/24 4:50am 22 4 G 5 55° 90% - - 53° 62° 54.5° - - -
5/24 4:40am 33 4 G 5 56° 90% - - 53° 62° 54.5° - - -
5/24 4:30am 3 2 G 3 56° 89% - - 53° 62° 54.5° - - -
5/24 4:20am 348 3 G 3 56° 87% - - 52° 62° 54.5° - - -
5/24 4:10am 14 2 G 3 56° 88% - - 53° 62° 54.5° - - -
5/24 4:00am 15 1 G 2 56° 88% - - 52° 62° 54.5° - - -
5/24 3:50am 333 2 G 5 55° 86% - - 51° 62° 54.5° - - -
5/24 3:40am 338 3 G 5 56° 86% - - 52° 62° 54.8° - - -
5/24 3:30am 208 2 G 5 58° 87% - - 54° 62° 54.8° - - -
5/24 3:20am 236 3 G 6 56° 85% - - 52° 62° 54.8° - - -
5/24 3:10am 216 2 G 4 55° 82% - - 50° 62° 54.8° - - -
5/24 3:00am 346 1 G 2 56° 82% - - 50° 62° 55.1° - - -
5/24 2:50am 239 0 G 1 55° 81% - - 49° 62° 55.1° - - -
5/24 2:40am 131 1 G 2 56° 80% - - 50° 62° 55.2° - - -
5/24 2:30am 198 1 G 2 56° 80% - - 50° 62° 55.7° - - -
5/24 2:20am 70 1 G 3 56° 80% - - 50° 62° 55.7° - - -
5/24 2:10am 227 1 G 2 56° 79% - - 50° 62° 55.7° - - -
5/24 2:00am 212 0 G 2 57° 79% - - 50° 62° 56.3° - - -
5/24 1:50am 154 0 G 1 57° 78% - - 50° 62° 56.8° - - -
5/24 1:40am 147 0 G 2 58° 77% - - 51° 62° 57.5° - - -
5/24 1:30am 86 0 G 2 58° 78% - - 51° 62° 57.8° - - -
5/24 1:20am 80 0 G 1 58° 78% - - 51° 62° 57.8° - - -
5/24 1:10am 135 1 G 2 59° 76% - - 51° 62° 58° - - -
5/24 1:00am 27 1 G 2 60° 77% - - 53° 62° 59.2° - - -
5/24 12:50am 345 2 G 4 59° 77% - - 52° 62° 59.2° - - -
5/24 12:40am 356 3 G 5 60° 76% - - 52° 62° 59.5° - - -
5/24 12:30am 6 3 G 4 61° 74% - - 52° 62° 59.7° - - -
5/24 12:20am 25 2 G 4 62° 75% - - 54° 62° 60.8° - - -
5/24 12:10am 99 1 G 2 62° 75% - - 53° 61.9° 60.8° - - -
5/24 12:00am 327 1 G 2 61° 74% - - 53° 87.4° 53.8° - - -
5/23 11:50pm 101 1 G 2 61° 74% - - 53° 87.4° 53.8° - - -
5/23 11:40pm 210 0 G 1 61° 73% - - 52° 87.4° 53.8° - - -
5/23 11:30pm 227 0 G 1 61° 72% - - 52° 87.4° 53.8° - - -
5/23 11:20pm 230 1 G 2 62° 70% - - 52° 87.4° 53.8° - - -
5/23 11:10pm 88 1 G 3 62° 70% - - 52° 87.4° 53.8° - - -
5/23 11:00pm 199 0 G 1 62° 69% - - 52° 87.4° 53.8° - - -
5/23 10:50pm 172 0 G 1 63° 69% - - 52° 87.4° 53.8° - - -
5/23 10:40pm 220 0 G 1 63° 68% - - 52° 87.4° 53.8° - - -
5/23 10:30pm 135 0 G 2 63° 66% - - 52° 87.4° 53.8° - - -
5/23 10:20pm 96 1 G 2 64° 67% - - 53° 87.4° 53.8° - - -
5/23 10:10pm 190 1 G 2 65° 67% - - 53° 87.4° 53.8° - - -
5/23 10:00pm 7 1 G 3 66° 65% - - 54° 87.4° 53.8° - - -
5/23 9:50pm 350 1 G 3 66° 63% - - 53° 87.4° 53.8° - - -
5/23 9:40pm 185 1 G 2 67° 62% - - 53° 87.4° 53.8° - - -
5/23 9:30pm 260 1 G 2 67° 61% - - 53° 87.4° 53.8° - - -
5/23 9:20pm 196 2 G 3 68° 59% - - 53° 87.4° 53.8° - - -
5/23 9:10pm 218 1 G 3 68° 58% - - 53° 87.4° 53.8° - - -
5/23 9:00pm 214 3 G 4 69° 57% - - 53° 87.4° 53.8° - - -
5/23 8:50pm 248 2 G 4 70° 57% - - 54° 87.4° 53.8° - - -
5/23 8:40pm 260 1 G 3 70° 57% - - 54° 87.4° 53.8° - - -
5/23 8:30pm 278 0 G 2 71° 56% - - 54° 87.4° 53.8° - - -
5/23 8:20pm 231 1 G 2 72° 54% - - 54° 87.4° 53.8° - - -
5/23 8:10pm 186 1 G 3 72° 53% - - 54° 87.4° 53.8° - - -
5/23 8:00pm 219 0 G 2 73° 50% - - 53° 87.4° 53.8° - - -
5/23 7:50pm 237 2 G 5 73° 48% - - 53° 87.4° 53.8° - - -
5/23 7:40pm 228 2 G 5 74° 47% - - 53° 87.4° 53.8° - - -
5/23 7:30pm 183 3 G 6 75° 46% - - 53° 87.4° 53.8° - - -
5/23 7:20pm 217 4 G 9 75° 45% - - 52° 87.4° 53.8° - - -
5/23 7:10pm 213 6 G 9 76° 44% - - 52° 87.4° 53.8° - - -
5/23 7:00pm 222 5 G 9 77° 42% - - 52° 87.4° 53.8° - - -
5/23 6:50pm 232 7 G 13 77° 40% - - 51° 87.4° 53.8° - - -
5/23 6:40pm 240 8 G 13 78° 39% - - 51° 87.4° 53.8° - - -
5/23 6:30pm 241 7 G 11 79° 37% - - 51° 87.4° 53.8° - - -
5/23 6:20pm 236 8 G 11 80° 35% - - 50° 87.4° 53.8° - - -
5/23 6:10pm 235 7 G 11 81° 32% - - 48° 87.4° 53.8° - - -
5/23 6:00pm 240 7 G 10 82° 29% - - 47° 87.4° 53.8° - - -
5/23 5:50pm 238 7 G 10 83° 28% - - 46° 87.4° 53.8° - - -
5/23 5:40pm 239 6 G 9 84° 28% - - 47° 87.4° 53.8° - - -
5/23 5:30pm 238 6 G 8 84° 29% - - 48° 87.4° 53.8° - - -
5/23 5:20pm 233 4 G 7 84° 28% - - 48° 87.4° 53.8° - - -
5/23 5:10pm 226 4 G 6 84° 29% - - 49° 87.4° 53.8° - - -
5/23 5:00pm 229 4 G 6 84° 29% - - 48° 87.4° 53.8° - - -
5/23 4:50pm 228 4 G 7 84° 29% - - 48° 87.4° 53.8° - - -
5/23 4:40pm 230 4 G 7 83° 30% - - 48° 87.4° 53.8° - - -
5/23 4:30pm 223 5 G 8 82° 30% - - 48° 87.4° 53.8° - - -
5/23 4:20pm 227 5 G 9 82° 30% - - 48° 87.4° 53.8° - - -
5/23 4:10pm 229 5 G 8 82° 31% - - 48° 87.4° 53.8° - - -
5/23 4:00pm 220 6 G 9 81° 32% - - 48° 87.4° 53.8° - - -
5/23 3:50pm 226 8 G 11 80° 33% - - 48° 87.4° 53.8° - - -
5/23 3:40pm 229 8 G 13 79° 35% - - 49° 87.4° 53.8° - - -
5/23 3:30pm 231 9 G 13 79° 35% - - 49° 87.4° 53.8° - - -
5/23 3:20pm 236 8 G 14 78° 39% - - 52° 87.4° 53.8° - - -
5/23 3:10pm 233 9 G 15 78° 43% - - 54° 87.4° 53.8° - - -
5/23 3:00pm 231 8 G 12 78° 44% - - 54° 87.4° 53.8° - - -
5/23 2:50pm 242 8 G 12 77° 46% - - 55° 87.4° 53.8° - - -
5/23 2:40pm 239 9 G 14 76° 48% - - 55° 87.4° 53.8° - - -
5/23 2:30pm 236 10 G 15 76° 48% - - 55° 87.4° 53.8° - - -
5/23 2:20pm 241 9 G 13 76° 49% - - 55° 87.4° 53.8° - - -
5/23 2:10pm 237 9 G 15 76° 50% - - 55° 87.4° 53.8° - - -
5/23 2:00pm 240 9 G 16 75° 50% - - 56° 87.4° 53.8° - - -
5/23 1:50pm 241 10 G 16 75° 51% - - 56° 87.4° 53.8° - - -
5/23 1:40pm 241 11 G 17 75° 51% - - 56° 87.4° 53.8° - - -
5/23 1:30pm 242 10 G 17 76° 50% - - 56° 87.4° 53.8° - - -
5/23 1:20pm 242 11 G 18 76° 49% - - 56° 87.4° 53.8° - - -
5/23 1:10pm 237 9 G 14 76° 49% - - 56° 87.4° 53.8° - - -
5/23 1:00pm 240 9 G 15 76° 49% - - 56° 87.4° 53.8° - - -
5/23 12:50pm 240 12 G 18 75° 51% - - 56° 87.4° 53.8° - - -
5/23 12:40pm 239 13 G 22 76° 49% - - 56° 87.4° 53.8° - - -
5/23 12:30pm 239 10 G 16 77° 48% - - 56° 87.4° 53.8° - - -
5/23 12:20pm 238 13 G 20 78° 47% - - 56° 87.4° 53.8° - - -
5/23 12:10pm 240 13 G 20 80° 43% - - 56° 87.4° 53.8° - - -
5/23 12:00pm 240 10 G 16 83° 37% - - 54° 87.4° 53.8° - - -
5/23 11:50am 240 8 G 15 84° 29% - - 49° 87.4° 53.8° - - -
5/23 11:40am 239 8 G 13 85° 27% - - 47° 87.4° 53.8° - - -
5/23 11:30am 238 9 G 15 85° 27% - - 47° 87.4° 53.8° - - -
5/23 11:20am 238 8 G 12 85° 26% - - 46° 87.4° 53.8° - - -
5/23 11:10am 227 8 G 13 84° 26% - - 45° 87.4° 53.8° - - -
5/23 11:00am 239 7 G 12 84° 25% - - 44° 87.4° 53.8° - - -
5/23 10:50am 231 7 G 11 84° 26% - - 46° 87.4° 53.8° - - -
5/23 10:40am 204 5 G 9 86° 24% - - 44° 87.4° 53.8° - - -
5/23 10:30am 206 2 G 4 84° 23% - - 43° 86° 53.8° - - -
5/23 10:20am 212 3 G 5 84° 25% - - 44° 85.8° 53.8° - - -
5/23 10:10am 191 3 G 5 84° 24% - - 43° 85.8° 53.8° - - -
5/23 10:00am 72 2 G 4 84° 20% - - 39° 85° 53.8° - - -
5/23 9:50am 97 1 G 3 84° 21% - - 39° 84.2° 53.8° - - -
5/23 9:40am 40 1 G 3 83° 21% - - 39° 83.7° 53.8° - - -
5/23 9:30am 56 2 G 3 82° 23% - - 40° 82.2° 53.8° - - -
5/23 9:20am 35 1 G 4 81° 24% - - 41° 81.2° 53.8° - - -
5/23 9:10am 37 1 G 2 80° 26% - - 42° 80.4° 53.8° - - -
5/23 9:00am 76 1 G 3 79° 27% - - 42° 80.4° 53.8° - - -
5/23 8:50am 43 1 G 3 77° 30% - - 44° 77.9° 53.8° - - -
5/23 8:40am 41 1 G 3 75° 32% - - 44° 76.7° 53.8° - - -
5/23 8:30am 86 1 G 3 74° 36% - - 46° 75° 53.8° - - -
5/23 8:20am 78 1 G 2 74° 39% - - 47° 74.2° 53.8° - - -
5/23 8:10am 90 1 G 2 71° 41% - - 46° 72.3° 53.8° - - -
5/23 8:00am 20 1 G 3 69° 44% - - 46° 69.6° 53.8° - - -
5/23 7:50am 48 1 G 2 67° 51% - - 49° 68.5° 53.8° - - -
5/23 7:40am 109 1 G 2 65° 58% - - 50° 66.1° 53.8° - - -
5/23 7:30am 113 1 G 2 64° 61% - - 50° 63.9° 53.8° - - -
5/23 7:20am 92 1 G 2 62° 63% - - 50° 63.4° 53.8° - - -
5/23 7:10am 95 1 G 2 61° 65% - - 49° 61.8° 53.8° - - -
5/23 7:00am 69 1 G 2 59° 68% - - 49° 60.2° 53.8° - - -
5/23 6:50am 96 2 G 3 58° 70% - - 48° 60.2° 53.8° - - -
5/23 6:40am 84 2 G 3 57° 73% - - 48° 60.2° 53.8° - - -
5/23 6:30am 95 2 G 3 56° 74% - - 48° 60.2° 53.8° - - -
5/23 6:20am 42 2 G 3 56° 75% - - 49° 60.2° 53.8° - - -
5/23 6:10am 359 1 G 2 55° 78% - - 48° 60.2° 53.8° - - -
5/23 6:00am 275 0 G 1 55° 78% - - 48° 60.2° 53.8° - - -